Darstellungsparameter: Aktuell verwendete Einstellungen:
Skalierung der Graphiken ... ?
xyx+y,   Skalierungsfaktor:      Skalierung: Modus: x, Faktor: 1
Darstellungszeitraum ... ?
Vom - - bis: - -   Zeitraum: 21.06.2004 - 27.06.2004
Min/Max/Avg-Anzeige ... ?
Zeige MMA aktuell
Zeige MMA Monat
Zeige MMA alles
Zeige --A aktuell
Zeige --A Monat
Zeige --A alles
Keine MMA-Anzeige
MMA:
Keine MMA-Graphiken
MMA-Basis: 21.06.2004 - 27.06.2004
Quicknavigation für Darstellung... ?
Tage:      1T, 2T, 3T, 5T -1T -2T -3T -5T +1T +2T +3T +5T
Wochen: 1W, 2W, 3W -1W -2W -3W +1W +2W +3W
Monate: 1M, 3M, 6M -1M -3M -6M +1M +3M +6M
Jahre:    1J, 3J, 5J, 10J -1J -3J -5J -10J +1J +3J +5J +10J
Nutze für die Darstellung ... ?
Originaldaten oder Mittelwerte auf ...
Stundenbasis Tagesbasis Wochenbasis
Monatsbasis Jahresbasis      Datenbasis: Original-Daten
Darstellen als:
Statistik (Auto) Statistik J:M      Darstellung:
Zur Graphik,    zurück zur Übersicht aller Sensoren.
 
Tabellarische Datenbersicht: ?
 
Sensor: Nr:Datum:Temp:Abs-Feuchte:Windchill:Wind:
Aussen-T/F 1 21-06-2004 00:07:17 12.1 C 8.79 g/m*3 12.1 C 0 km/h
2 21-06-2004 00:19:17 12 C 8.63 g/m*3 12 C 0 km/h
3 21-06-2004 00:31:17 11.6 C 8.32 g/m*3 11.6 C 0 km/h
4 21-06-2004 00:43:17 11.4 C 8.31 g/m*3 11.4 C 0 km/h
5 21-06-2004 00:55:17 11.5 C 8.37 g/m*3 11.5 C 0 km/h
6 21-06-2004 01:07:17 11.1 C 8.06 g/m*3 11.1 C 0 km/h
7 21-06-2004 01:19:17 11.2 C 8.21 g/m*3 11.2 C 0 km/h
8 21-06-2004 01:31:17 11.3 C 8.26 g/m*3 11.3 C 0 km/h
9 21-06-2004 01:43:18 11.1 C 8.16 g/m*3 11.1 C 0 km/h
10 21-06-2004 01:55:18 11 C 8.11 g/m*3 11 C 0 km/h
11 21-06-2004 02:07:18 10.9 C 8.16 g/m*3 10.9 C 0 km/h
12 21-06-2004 02:19:18 10.8 C 8.2 g/m*3 10.8 C 0 km/h
13 21-06-2004 02:31:18 10.7 C 8.15 g/m*3 10.7 C 0 km/h
14 21-06-2004 02:43:18 10.6 C 8.1 g/m*3 10.6 C 0 km/h
15 21-06-2004 02:55:18 10.6 C 8.1 g/m*3 10.6 C 0 km/h
16 21-06-2004 03:07:18 10.5 C 8.05 g/m*3 10.5 C 0 km/h
17 21-06-2004 03:19:18 10.3 C 7.95 g/m*3 10.3 C 0 km/h
18 21-06-2004 03:31:18 10.4 C 8.1 g/m*3 10.4 C 0 km/h
19 21-06-2004 03:43:18 10.3 C 8.04 g/m*3 10.3 C 0 km/h
20 21-06-2004 03:55:18 10.1 C 7.94 g/m*3 10.1 C 0 km/h
21 21-06-2004 04:07:18 10.2 C 7.99 g/m*3 10.2 C 0 km/h
22 21-06-2004 04:19:18 10.1 C 7.94 g/m*3 10.1 C 0 km/h
23 21-06-2004 04:31:18 10.1 C 7.94 g/m*3 10.1 C 0 km/h
24 21-06-2004 04:43:18 10 C 7.89 g/m*3 10 C 0 km/h
25 21-06-2004 04:55:18 10 C 7.89 g/m*3 10 C 0 km/h
Sensor: Nr:Datum:Temp:Abs-Feuchte:Windchill:Wind:
Aussen-T/F 26 21-06-2004 05:07:18 9.9 C 7.94 g/m*3 9.9 C 0 km/h
27 21-06-2004 05:19:18 9.8 C 7.89 g/m*3 9.8 C 0 km/h
28 21-06-2004 05:31:18 9.8 C 7.98 g/m*3 9.8 C 0 km/h
29 21-06-2004 05:43:18 9.8 C 7.89 g/m*3 9.8 C 0 km/h
30 21-06-2004 05:55:18 9.7 C 7.84 g/m*3 9.7 C 0 km/h
31 21-06-2004 06:07:19 9.6 C 7.88 g/m*3 9.6 C 0 km/h
32 21-06-2004 06:19:19 9.7 C 7.93 g/m*3 9.7 C 0 km/h
33 21-06-2004 06:31:19 9.9 C 8.03 g/m*3 9.9 C 0 km/h
34 21-06-2004 06:43:19 10 C 7.89 g/m*3 10 C 0 km/h
35 21-06-2004 06:55:19 10.4 C 8.29 g/m*3 10.4 C 0 km/h
36 21-06-2004 07:07:19 10.8 C 8.4 g/m*3 10.8 C 0 km/h
37 21-06-2004 07:19:19 11.3 C 8.47 g/m*3 11.3 C 0 km/h
38 21-06-2004 07:31:19 11.7 C 8.26 g/m*3 11.7 C 0 km/h
39 21-06-2004 07:43:19 11.8 C 8 g/m*3 11.8 C 0 km/h
40 21-06-2004 07:55:19 12 C 7.89 g/m*3 12 C 0 km/h
41 21-06-2004 08:07:19 12.1 C 8.04 g/m*3 12.1 C 0 km/h
42 21-06-2004 08:19:19 12.4 C 8.09 g/m*3 12.4 C 0 km/h
43 21-06-2004 08:31:19 13.1 C 8.22 g/m*3 13.1 C 0 km/h
44 21-06-2004 08:43:19 13.2 C 8.15 g/m*3 13.2 C 0 km/h
45 21-06-2004 08:55:19 13.1 C 8.44 g/m*3 13.1 C 0 km/h
46 21-06-2004 09:07:19 13.2 C 7.69 g/m*3 13.2 C 0 km/h
47 21-06-2004 09:19:20 14 C 7.48 g/m*3 14 C 0 km/h
48 21-06-2004 09:31:20 14.7 C 7.43 g/m*3 14.7 C 0 km/h
49 21-06-2004 09:43:20 15.5 C 7.27 g/m*3 15.5 C 0 km/h
50 21-06-2004 09:55:20 14.1 C 7.65 g/m*3 14.1 C 0 km/h
Sensor: Nr:Datum:Temp:Abs-Feuchte:Windchill:Wind:
Aussen-T/F 51 21-06-2004 10:07:20 13.7 C 8.05 g/m*3 13.7 C 0 km/h
52 21-06-2004 10:19:20 13.9 C 8.27 g/m*3 13.9 C 0 km/h
53 21-06-2004 10:31:21 14.9 C 8.03 g/m*3 14.9 C 0 km/h
54 21-06-2004 10:43:21 15.8 C 7.67 g/m*3 15.8 C 0 km/h
55 21-06-2004 10:55:21 16.6 C 8.05 g/m*3 16.6 C 0 km/h
56 21-06-2004 11:07:26 17.3 C 7.51 g/m*3 17.3 C 0 km/h
57 21-06-2004 11:19:01 16.5 C 6.88 g/m*3 16.5 C 0 km/h
58 21-06-2004 11:31:01 17.1 C 7.13 g/m*3 17.1 C 0 km/h
59 21-06-2004 11:43:01 17.2 C 6.88 g/m*3 17.2 C 0 km/h
60 21-06-2004 11:55:02 17.6 C 6.9 g/m*3 17.6 C 0 km/h
61 21-06-2004 12:07:02 17.5 C 6.71 g/m*3 17.5 C 0 km/h
62 21-06-2004 12:19:02 17.8 C 6.98 g/m*3 17.8 C 0 km/h
63 21-06-2004 12:31:02 18.3 C 7.19 g/m*3 18.3 C 0 km/h
64 21-06-2004 12:43:02 17.9 C 6.87 g/m*3 17.9 C 0 km/h
65 21-06-2004 12:55:01 17.4 C 6.82 g/m*3 17.4 C 0 km/h
66 21-06-2004 13:07:01 18.5 C 6.96 g/m*3 18.5 C 0 km/h
67 21-06-2004 13:19:01 18.3 C 6.88 g/m*3 18.3 C 0 km/h
68 21-06-2004 13:31:00 17.5 C 6.11 g/m*3 17.5 C 0 km/h
69 21-06-2004 13:43:00 14.9 C 8.54 g/m*3 14.9 C 0 km/h
70 21-06-2004 13:55:01 15.3 C 8.62 g/m*3 15.3 C 0 km/h
71 21-06-2004 14:07:01 17.7 C 8.9 g/m*3 17.7 C 0 km/h
72 21-06-2004 14:19:01 16.2 C 8.14 g/m*3 16.2 C 0 km/h
73 21-06-2004 14:31:01 16.7 C 8.24 g/m*3 16.7 C 0 km/h
74 21-06-2004 14:43:01 18.3 C 8.13 g/m*3 18.3 C 0 km/h
75 21-06-2004 14:55:01 18.2 C 7.62 g/m*3 18.2 C 0 km/h
Sensor: Nr:Datum:Temp:Abs-Feuchte:Windchill:Wind:
Aussen-T/F 76 21-06-2004 15:07:01 18.8 C 7.57 g/m*3 18.8 C 0 km/h
77 21-06-2004 15:19:01 19.8 C 7.17 g/m*3 19.8 C 0 km/h
78 21-06-2004 15:31:01 19.9 C 7.22 g/m*3 19.9 C 0 km/h
79 21-06-2004 15:43:01 20.2 C 6.99 g/m*3 20.2 C 0 km/h
80 21-06-2004 15:55:01 20.6 C 6.62 g/m*3 20.6 C 0 km/h
81 21-06-2004 16:07:01 21 C 6.59 g/m*3 21 C 0 km/h
82 21-06-2004 16:19:01 21.3 C 6.9 g/m*3 21.3 C 0 km/h
83 21-06-2004 16:31:01 17.9 C 6.11 g/m*3 17.9 C 0 km/h
84 21-06-2004 16:43:01 16.7 C 7.11 g/m*3 16.7 C 0 km/h
85 21-06-2004 16:55:01 17.3 C 7.22 g/m*3 17.3 C 0 km/h
86 21-06-2004 17:07:00 18.3 C 6.72 g/m*3 18.3 C 0 km/h
87 21-06-2004 17:19:01 18.7 C 7.36 g/m*3 18.7 C 0 km/h
88 21-06-2004 17:31:02 19.3 C 7.46 g/m*3 19.3 C 0 km/h
89 21-06-2004 17:43:02 20.2 C 7.34 g/m*3 20.2 C 0 km/h
90 21-06-2004 17:55:02 19.3 C 6.97 g/m*3 19.3 C 0 km/h
91 21-06-2004 18:07:03 19.1 C 6.72 g/m*3 19.1 C 0 km/h
92 21-06-2004 18:19:02 19.7 C 6.96 g/m*3 19.7 C 0 km/h
93 21-06-2004 18:31:02 20 C 7.26 g/m*3 20 C 0 km/h
94 21-06-2004 18:43:02 20.2 C 7.17 g/m*3 20.2 C 0 km/h
95 21-06-2004 18:55:04 20.2 C 6.99 g/m*3 20.2 C 0 km/h
96 21-06-2004 19:07:04 20.8 C 6.88 g/m*3 20.8 C 0 km/h
97 21-06-2004 19:19:04 20.4 C 6.9 g/m*3 20.4 C 0 km/h
98 21-06-2004 19:31:04 20.9 C 7.29 g/m*3 20.9 C 0 km/h
99 21-06-2004 19:43:04 20.7 C 7.2 g/m*3 20.7 C 0 km/h
100 21-06-2004 19:55:01 20.6 C 7.34 g/m*3 20.6 C 0 km/h
Sensor: Nr:Datum:Temp:Abs-Feuchte:Windchill:Wind:
Aussen-T/F 101 21-06-2004 20:07:02 20.1 C 7.3 g/m*3 20.1 C 0 km/h
102 21-06-2004 20:19:02 19.7 C 7.64 g/m*3 19.7 C 0 km/h
103 21-06-2004 20:31:02 19.2 C 7.75 g/m*3 19.2 C 0 km/h
104 21-06-2004 20:43:02 19 C 7.82 g/m*3 19 C 0 km/h
105 21-06-2004 20:55:01 18.3 C 7.66 g/m*3 18.3 C 0 km/h
106 21-06-2004 21:07:01 17.4 C 7.56 g/m*3 17.4 C 0 km/h
107 21-06-2004 21:19:01 16.8 C 8.01 g/m*3 16.8 C 0 km/h
108 21-06-2004 21:31:01 16.3 C 8.19 g/m*3 16.3 C 0 km/h
109 21-06-2004 21:43:01 15.4 C 7.88 g/m*3 15.4 C 0 km/h
110 21-06-2004 21:55:01 14.9 C 7.9 g/m*3 14.9 C 0 km/h
111 21-06-2004 22:07:01 14.5 C 7.84 g/m*3 14.5 C 0 km/h
112 21-06-2004 22:19:01 14.2 C 7.94 g/m*3 14.2 C 0 km/h
113 21-06-2004 22:31:01 14 C 7.96 g/m*3 14 C 0 km/h
114 21-06-2004 22:43:01 13.6 C 7.89 g/m*3 13.6 C 0 km/h
115 21-06-2004 22:55:01 13.5 C 7.95 g/m*3 13.5 C 0 km/h
116 21-06-2004 23:07:01 13.5 C 8.07 g/m*3 13.5 C 0 km/h
117 21-06-2004 23:19:01 13.4 C 8.14 g/m*3 13.4 C 0 km/h
118 21-06-2004 23:31:01 13.3 C 8.2 g/m*3 13.3 C 0 km/h
119 21-06-2004 23:43:01 13.3 C 8.2 g/m*3 13.3 C 0 km/h
120 21-06-2004 23:55:01 13.5 C 8.3 g/m*3 13.5 C 0 km/h
121 22-06-2004 00:07:01 13.5 C 8.3 g/m*3 13.5 C 0 km/h
122 22-06-2004 00:20:00 13.1 C 8.22 g/m*3 13.1 C 0 km/h
123 22-06-2004 00:32:00 13.2 C 8.27 g/m*3 13.2 C 0 km/h
124 22-06-2004 00:44:00 12.9 C 8.34 g/m*3 12.9 C 0 km/h
125 22-06-2004 00:56:00 12.9 C 8.34 g/m*3 12.9 C 0 km/h
Sensor: Nr:Datum:Temp:Abs-Feuchte:Windchill:Wind:
Aussen-T/F 126 22-06-2004 01:08:01 13 C 8.28 g/m*3 13 C 0 km/h
127 22-06-2004 01:20:01 12.8 C 8.29 g/m*3 12.8 C 0 km/h
128 22-06-2004 01:32:01 12.8 C 8.4 g/m*3 12.8 C 0 km/h
129 22-06-2004 01:44:01 12.7 C 8.35 g/m*3 12.7 C 0 km/h
130 22-06-2004 01:56:01 12.6 C 8.52 g/m*3 12.6 C 0 km/h
131 22-06-2004 02:08:01 12.5 C 8.47 g/m*3 12.5 C 0 km/h
132 22-06-2004 02:20:02 12.6 C 8.19 g/m*3 12.6 C 0 km/h
133 22-06-2004 02:32:02 12.3 C 8.58 g/m*3 12.3 C 0 km/h
134 22-06-2004 02:44:02 12.2 C 8.42 g/m*3 12.2 C 0 km/h
135 22-06-2004 02:56:02 12.3 C 8.47 g/m*3 12.3 C 0 km/h
136 22-06-2004 03:08:02 12.3 C 8.36 g/m*3 12.3 C 0 km/h
137 22-06-2004 03:20:02 12.2 C 8.42 g/m*3 12.2 C 0 km/h
138 22-06-2004 03:32:03 12.2 C 8.42 g/m*3 12.2 C 0 km/h
139 22-06-2004 03:44:03 12.3 C 8.69 g/m*3 12.3 C 0 km/h
140 22-06-2004 03:56:03 12.1 C 8.79 g/m*3 12.1 C 0 km/h
141 22-06-2004 04:08:03 12 C 8.95 g/m*3 12 C 0 km/h
142 22-06-2004 04:20:03 12 C 8.95 g/m*3 12 C 0 km/h
143 22-06-2004 04:32:03 11.9 C 9 g/m*3 11.9 C 0 km/h
144 22-06-2004 04:44:04 11.9 C 9.11 g/m*3 11.9 C 0 km/h
145 22-06-2004 04:56:04 11.8 C 9.05 g/m*3 11.8 C 0 km/h
146 22-06-2004 05:08:04 11.9 C 9.11 g/m*3 11.9 C 0 km/h
147 22-06-2004 05:20:04 12 C 9.06 g/m*3 12 C 0 km/h
148 22-06-2004 05:32:04 12.1 C 9.12 g/m*3 12.1 C 0 km/h
149 22-06-2004 05:44:04 12.2 C 9.17 g/m*3 12.2 C 0 km/h
150 22-06-2004 05:56:04 12.1 C 9.12 g/m*3 12.1 C 0 km/h
Sensor: Nr:Datum:Temp:Abs-Feuchte:Windchill:Wind:
Aussen-T/F 151 22-06-2004 06:08:04 12.2 C 9.28 g/m*3 12.2 C 0 km/h
152 22-06-2004 06:20:04 12.2 C 9.39 g/m*3 12.2 C 0 km/h
153 22-06-2004 06:32:04 12.1 C 9.22 g/m*3 12.1 C 0 km/h
154 22-06-2004 06:44:04 12 C 9.27 g/m*3 12 C 0 km/h
155 22-06-2004 06:56:04 12.1 C 9.33 g/m*3 12.1 C 0 km/h
156 22-06-2004 07:08:04 12.2 C 9.39 g/m*3 12.2 C 0 km/h
157 22-06-2004 07:20:00 12.2 C 9.39 g/m*3 12.2 C 0 km/h
158 22-06-2004 07:32:00 12.4 C 9.51 g/m*3 12.4 C 0 km/h
159 22-06-2004 07:44:00 12.6 C 9.62 g/m*3 12.6 C 0 km/h
160 22-06-2004 07:56:01 12.8 C 9.74 g/m*3 12.8 C 0 km/h
161 22-06-2004 08:08:01 13.1 C 9.81 g/m*3 13.1 C 0 km/h
162 22-06-2004 08:20:01 13.2 C 9.87 g/m*3 13.2 C 0 km/h
163 22-06-2004 08:32:01 13.4 C 9.88 g/m*3 13.4 C 0 km/h
164 22-06-2004 08:44:01 13.7 C 10.07 g/m*3 13.7 C 0 km/h
165 22-06-2004 08:56:01 13.7 C 10.07 g/m*3 13.7 C 0 km/h
166 22-06-2004 09:08:01 13.7 C 10.18 g/m*3 13.7 C 0 km/h
167 22-06-2004 09:20:01 13.8 C 10.25 g/m*3 13.8 C 0 km/h
168 22-06-2004 09:32:01 13.7 C 10.3 g/m*3 13.7 C 0 km/h
169 22-06-2004 09:44:01 13.9 C 10.55 g/m*3 13.9 C 0 km/h
170 22-06-2004 09:56:01 14.1 C 10.56 g/m*3 14.1 C 0 km/h
171 22-06-2004 10:08:01 14 C 10.37 g/m*3 14 C 0 km/h
172 22-06-2004 10:20:01 14 C 10.37 g/m*3 14 C 0 km/h
173 22-06-2004 10:32:01 14.1 C 10.44 g/m*3 14.1 C 0 km/h
174 22-06-2004 10:44:01 14.2 C 10.38 g/m*3 14.2 C 0 km/h
175 22-06-2004 10:56:01 14.1 C 10.19 g/m*3 14.1 C 0 km/h
Sensor: Nr:Datum:Temp:Abs-Feuchte:Windchill:Wind:
Aussen-T/F 176 22-06-2004 11:08:01 13.7 C 10.18 g/m*3 13.7 C 0 km/h
177 22-06-2004 11:20:01 13.6 C 10.24 g/m*3 13.6 C 0 km/h
178 22-06-2004 11:32:01 14 C 10.61 g/m*3 14 C 0 km/h
179 22-06-2004 11:44:01 13.9 C 10.55 g/m*3 13.9 C 0 km/h
180 22-06-2004 11:56:01 14.1 C 10.68 g/m*3 14.1 C 0 km/h
181 22-06-2004 12:08:01 14.1 C 10.68 g/m*3 14.1 C 0 km/h
182 22-06-2004 12:20:02 14.2 C 10.75 g/m*3 14.2 C 0 km/h
183 22-06-2004 12:32:02 14.5 C 10.94 g/m*3 14.5 C 0 km/h
184 22-06-2004 12:44:02 14.7 C 10.95 g/m*3 14.7 C 0 km/h
185 22-06-2004 12:56:02 14.8 C 11.02 g/m*3 14.8 C 0 km/h
186 22-06-2004 13:08:02 14.6 C 10.76 g/m*3 14.6 C 0 km/h
187 22-06-2004 13:20:02 14.8 C 11.02 g/m*3 14.8 C 0 km/h
188 22-06-2004 13:32:02 14.9 C 10.96 g/m*3 14.9 C 0 km/h
189 22-06-2004 13:44:02 15.6 C 11.17 g/m*3 15.6 C 0 km/h
190 22-06-2004 13:56:01 15.8 C 11.04 g/m*3 15.8 C 0 km/h
191 22-06-2004 14:08:01 16 C 10.9 g/m*3 16 C 0 km/h
192 22-06-2004 14:20:01 16.2 C 11.03 g/m*3 16.2 C 0 km/h
193 22-06-2004 14:32:01 16.6 C 11.3 g/m*3 16.6 C 0 km/h
194 22-06-2004 14:44:01 17 C 11.29 g/m*3 17 C 0 km/h
195 22-06-2004 14:56:01 18.2 C 11.35 g/m*3 18.2 C 0 km/h
196 22-06-2004 15:08:01 19.4 C 11.35 g/m*3 19.4 C 0 km/h
197 22-06-2004 15:20:01 19.7 C 11.21 g/m*3 19.7 C 0 km/h
198 22-06-2004 15:32:01 19.3 C 11.11 g/m*3 19.3 C 0 km/h
199 22-06-2004 15:44:01 18.6 C 11.3 g/m*3 18.6 C 0 km/h
200 22-06-2004 15:56:01 18.7 C 11.37 g/m*3 18.7 C 0 km/h
Sensor: Nr:Datum:Temp:Abs-Feuchte:Windchill:Wind:
Aussen-T/F 201 22-06-2004 16:08:01 20.3 C 11.08 g/m*3 20.3 C 0 km/h
202 22-06-2004 16:20:00 20.1 C 10.95 g/m*3 20.1 C 0 km/h
203 22-06-2004 16:32:00 19.8 C 11.1 g/m*3 19.8 C 0 km/h
204 22-06-2004 16:44:00 19.3 C 11.44 g/m*3 19.3 C 0 km/h
205 22-06-2004 16:56:01 19.4 C 11.01 g/m*3 19.4 C 0 km/h
206 22-06-2004 17:08:01 20.1 C 11.13 g/m*3 20.1 C 0 km/h
207 22-06-2004 17:20:01 22.3 C 11.06 g/m*3 22.3 C 0 km/h
208 22-06-2004 17:32:01 23.5 C 11 g/m*3 23.5 C 0 km/h
209 22-06-2004 17:44:01 22.4 C 10.72 g/m*3 22.4 C 0 km/h
210 22-06-2004 17:56:01 22 C 10.87 g/m*3 22 C 0 km/h
211 22-06-2004 18:08:00 22.3 C 11.26 g/m*3 22.3 C 0 km/h
212 22-06-2004 18:20:00 22.6 C 10.85 g/m*3 22.6 C 0 km/h
213 22-06-2004 18:32:00 23.6 C 10.42 g/m*3 23.6 C 0 km/h
214 22-06-2004 18:44:00 22.7 C 10.51 g/m*3 22.7 C 0 km/h
215 22-06-2004 18:56:01 22.8 C 11.58 g/m*3 22.8 C 0 km/h
216 22-06-2004 19:08:01 22 C 11.45 g/m*3 22 C 0 km/h
217 22-06-2004 19:20:01 20.8 C 11.59 g/m*3 20.8 C 0 km/h
218 22-06-2004 19:32:01 20.1 C 11.82 g/m*3 20.1 C 0 km/h
219 22-06-2004 19:44:01 19.9 C 11.85 g/m*3 19.9 C 0 km/h
220 22-06-2004 19:56:01 19.5 C 11.92 g/m*3 19.5 C 0 km/h
221 22-06-2004 20:08:01 19.3 C 11.94 g/m*3 19.3 C 0 km/h
222 22-06-2004 20:20:01 19.2 C 11.21 g/m*3 19.2 C 0 km/h
223 22-06-2004 20:32:01 19 C 11.73 g/m*3 19 C 0 km/h
224 22-06-2004 20:44:01 18.7 C 11.85 g/m*3 18.7 C 0 km/h
225 22-06-2004 20:56:01 18.5 C 11.55 g/m*3 18.5 C 0 km/h
Sensor: Nr:Datum:Temp:Abs-Feuchte:Windchill:Wind:
Aussen-T/F 226 22-06-2004 21:08:01 18.3 C 11.57 g/m*3 18.3 C 0 km/h
227 22-06-2004 21:20:01 18.1 C 11.43 g/m*3 18.1 C 0 km/h
228 22-06-2004 21:32:01 17.6 C 11.4 g/m*3 17.6 C 0 km/h
229 22-06-2004 21:44:01 17.7 C 11.47 g/m*3 17.7 C 0 km/h
230 22-06-2004 21:56:01 17.4 C 11.41 g/m*3 17.4 C 0 km/h
231 22-06-2004 22:08:01 17 C 11.29 g/m*3 17 C 0 km/h
232 22-06-2004 22:20:01 16.6 C 11.44 g/m*3 16.6 C 0 km/h
233 22-06-2004 22:32:01 16.6 C 11.44 g/m*3 16.6 C 0 km/h
234 22-06-2004 22:44:01 16.6 C 11.44 g/m*3 16.6 C 0 km/h
235 22-06-2004 22:56:01 16.8 C 11.44 g/m*3 16.8 C 0 km/h
236 22-06-2004 23:08:01 17.2 C 11.42 g/m*3 17.2 C 0 km/h
237 22-06-2004 23:20:01 17.1 C 11.21 g/m*3 17.1 C 0 km/h
238 22-06-2004 23:32:01 17 C 11.29 g/m*3 17 C 0 km/h
239 22-06-2004 23:44:01 17.1 C 11.35 g/m*3 17.1 C 0 km/h
240 22-06-2004 23:56:01 17.3 C 11.2 g/m*3 17.3 C 0 km/h
241 23-06-2004 00:08:01 17.2 C 11.28 g/m*3 17.2 C 0 km/h
242 23-06-2004 00:20:01 17.1 C 11.21 g/m*3 17.1 C 0 km/h
243 23-06-2004 00:32:01 16.9 C 11.22 g/m*3 16.9 C 0 km/h
244 23-06-2004 00:44:01 16.8 C 11.29 g/m*3 16.8 C 0 km/h
245 23-06-2004 00:56:02 16.7 C 11.23 g/m*3 16.7 C 0 km/h
246 23-06-2004 01:08:02 16.6 C 11.16 g/m*3 16.6 C 0 km/h
247 23-06-2004 01:20:02 16.6 C 11.16 g/m*3 16.6 C 0 km/h
248 23-06-2004 01:32:02 16.6 C 11.16 g/m*3 16.6 C 0 km/h
249 23-06-2004 01:44:02 16.3 C 11.1 g/m*3 16.3 C 0 km/h
250 23-06-2004 01:56:01 16.1 C 11.1 g/m*3 16.1 C 0 km/h
Sensor: Nr:Datum:Temp:Abs-Feuchte:Windchill:Wind:
Aussen-T/F 251 23-06-2004 02:08:01 16.1 C 11.1 g/m*3 16.1 C 0 km/h
252 23-06-2004 02:20:01 16 C 11.17 g/m*3 16 C 0 km/h
253 23-06-2004 02:32:01 16.4 C 11.17 g/m*3 16.4 C 0 km/h
254 23-06-2004 02:44:01 16.5 C 11.23 g/m*3 16.5 C 0 km/h
255 23-06-2004 02:57:02 16.8 C 11.15 g/m*3 16.8 C 0 km/h
256 23-06-2004 03:09:02 17 C 11 g/m*3 17 C 0 km/h
257 23-06-2004 03:21:02 17.1 C 10.92 g/m*3 17.1 C 0 km/h
258 23-06-2004 03:33:01 17.1 C 10.77 g/m*3 17.1 C 0 km/h
259 23-06-2004 03:45:01 17.2 C 10.84 g/m*3 17.2 C 0 km/h
260 23-06-2004 03:57:01 16.5 C 11.09 g/m*3 16.5 C 0 km/h
261 23-06-2004 04:09:01 16.2 C 11.17 g/m*3 16.2 C 0 km/h
262 23-06-2004 04:21:01 16.4 C 11.31 g/m*3 16.4 C 0 km/h
263 23-06-2004 04:33:01 16.4 C 11.17 g/m*3 16.4 C 0 km/h
264 23-06-2004 04:45:01 16.5 C 11.09 g/m*3 16.5 C 0 km/h
265 23-06-2004 04:57:01 16.7 C 11.08 g/m*3 16.7 C 0 km/h
266 23-06-2004 05:09:01 16.4 C 11.03 g/m*3 16.4 C 0 km/h
267 23-06-2004 05:21:01 16 C 11.44 g/m*3 16 C 0 km/h
268 23-06-2004 05:33:01 15.6 C 11.84 g/m*3 15.6 C 0 km/h
269 23-06-2004 05:45:01 15.6 C 11.97 g/m*3 15.6 C 0 km/h
270 23-06-2004 05:57:01 15.4 C 11.96 g/m*3 15.4 C 0 km/h
271 23-06-2004 06:09:00 15.4 C 12.09 g/m*3 15.4 C 0 km/h
272 23-06-2004 06:21:00 15.4 C 12.09 g/m*3 15.4 C 0 km/h
273 23-06-2004 06:33:00 15.4 C 12.22 g/m*3 15.4 C 0 km/h
274 23-06-2004 06:45:01 15.4 C 12.22 g/m*3 15.4 C 0 km/h
275 23-06-2004 06:57:01 15.6 C 12.37 g/m*3 15.6 C 0 km/h
Sensor: Nr:Datum:Temp:Abs-Feuchte:Windchill:Wind:
Aussen-T/F 276 23-06-2004 07:09:01 15.8 C 12.52 g/m*3 15.8 C 0 km/h
277 23-06-2004 07:21:01 16 C 12.67 g/m*3 16 C 0 km/h
278 23-06-2004 07:33:01 16.5 C 12.92 g/m*3 16.5 C 0 km/h
279 23-06-2004 07:45:02 16.6 C 12.86 g/m*3 16.6 C 0 km/h
280 23-06-2004 07:57:02 16.9 C 12.94 g/m*3 16.9 C 0 km/h
281 23-06-2004 08:09:01 16.8 C 12.72 g/m*3 16.8 C 0 km/h
282 23-06-2004 08:21:01 16.6 C 12.57 g/m*3 16.6 C 0 km/h
283 23-06-2004 08:33:01 16.7 C 12.65 g/m*3 16.7 C 0 km/h
284 23-06-2004 08:45:01 16.8 C 12.72 g/m*3 16.8 C 0 km/h
285 23-06-2004 08:57:01 17.2 C 12.74 g/m*3 17.2 C 0 km/h
286 23-06-2004 09:09:00 17.7 C 12.67 g/m*3 17.7 C 0 km/h
287 23-06-2004 09:21:01 17.5 C 12.52 g/m*3 17.5 C 0 km/h
288 23-06-2004 09:33:01 17.7 C 12.67 g/m*3 17.7 C 0 km/h
289 23-06-2004 09:45:02 18.4 C 12.74 g/m*3 18.4 C 0 km/h
290 23-06-2004 09:57:02 18.9 C 12.64 g/m*3 18.9 C 0 km/h
291 23-06-2004 10:09:02 19.4 C 12.01 g/m*3 19.4 C 0 km/h
292 23-06-2004 10:21:02 19.5 C 11.58 g/m*3 19.5 C 0 km/h
293 23-06-2004 10:33:02 19.8 C 11.61 g/m*3 19.8 C 0 km/h
294 23-06-2004 10:45:01 20.1 C 11.3 g/m*3 20.1 C 0 km/h
295 23-06-2004 10:57:01 20.1 C 10.95 g/m*3 20.1 C 0 km/h
296 23-06-2004 11:09:01 20.4 C 11.14 g/m*3 20.4 C 0 km/h
297 23-06-2004 11:21:01 21.1 C 10.87 g/m*3 21.1 C 0 km/h
298 23-06-2004 11:33:01 21.9 C 11 g/m*3 21.9 C 0 km/h
299 23-06-2004 11:45:01 22.7 C 10.3 g/m*3 22.7 C 0 km/h
300 23-06-2004 11:57:01 22 C 9.7 g/m*3 22 C 0 km/h
Sensor: Nr:Datum:Temp:Abs-Feuchte:Windchill:Wind:
Aussen-T/F 301 23-06-2004 12:09:01 22.2 C 8.83 g/m*3 22.2 C 0 km/h
302 23-06-2004 12:21:01 22.4 C 9.33 g/m*3 22.4 C 0 km/h
303 23-06-2004 12:33:01 22 C 8.73 g/m*3 22 C 0 km/h
304 23-06-2004 12:45:00 22 C 8.93 g/m*3 22 C 0 km/h
305 23-06-2004 12:57:00 22.8 C 8.94 g/m*3 22.8 C 0 km/h
306 23-06-2004 13:09:00 23.3 C 8.36 g/m*3 23.3 C 0 km/h
307 23-06-2004 13:21:00 23.5 C 8.88 g/m*3 23.5 C 0 km/h
308 23-06-2004 13:33:00 23 C 8.43 g/m*3 23 C 0 km/h
309 23-06-2004 13:45:01 24.1 C 8.53 g/m*3 24.1 C 0 km/h
310 23-06-2004 13:57:01 23.4 C 8.62 g/m*3 23.4 C 0 km/h
311 23-06-2004 14:09:01 23.3 C 8.57 g/m*3 23.3 C 0 km/h
312 23-06-2004 14:21:01 22.9 C 8.38 g/m*3 22.9 C 0 km/h
313 23-06-2004 14:33:01 23.1 C 8.27 g/m*3 23.1 C 0 km/h
314 23-06-2004 14:45:01 23.4 C 8.2 g/m*3 23.4 C 0 km/h
315 23-06-2004 14:57:01 23.7 C 8.56 g/m*3 23.7 C 0 km/h
316 23-06-2004 15:09:00 23.5 C 7.82 g/m*3 23.5 C 0 km/h
317 23-06-2004 15:21:00 24.1 C 7.88 g/m*3 24.1 C 0 km/h
318 23-06-2004 15:33:00 23.6 C 8.08 g/m*3 23.6 C 0 km/h
319 23-06-2004 15:45:01 23.9 C 7.79 g/m*3 23.9 C 0 km/h
320 23-06-2004 15:57:01 23.3 C 7.53 g/m*3 23.3 C 0 km/h
321 23-06-2004 16:09:01 23.8 C 7.53 g/m*3 23.8 C 0 km/h
322 23-06-2004 16:21:01 23.9 C 7.57 g/m*3 23.9 C 0 km/h
323 23-06-2004 16:33:01 22.6 C 7.83 g/m*3 22.6 C 0 km/h
324 23-06-2004 16:45:01 23.6 C 8.08 g/m*3 23.6 C 0 km/h
325 23-06-2004 16:57:01 23 C 8.22 g/m*3 23 C 0 km/h
Sensor: Nr:Datum:Temp:Abs-Feuchte:Windchill:Wind:
Aussen-T/F 326 23-06-2004 17:09:01 22.2 C 9.23 g/m*3 22.2 C 0 km/h
327 23-06-2004 17:21:01 22 C 10.09 g/m*3 22 C 0 km/h
328 23-06-2004 17:33:01 21.5 C 9.43 g/m*3 21.5 C 0 km/h
329 23-06-2004 17:45:01 19 C 10.43 g/m*3 19 C 0 km/h
330 23-06-2004 17:57:01 16.3 C 11.38 g/m*3 16.3 C 0 km/h
331 23-06-2004 18:09:01 17.8 C 12.75 g/m*3 17.8 C 0 km/h
332 23-06-2004 18:21:01 20 C 12.1 g/m*3 20 C 0 km/h
333 23-06-2004 18:33:01 19.2 C 11.05 g/m*3 19.2 C 0 km/h
334 23-06-2004 18:45:01 18 C 10.91 g/m*3 18 C 0 km/h
335 23-06-2004 18:57:01 18.7 C 10.73 g/m*3 18.7 C 0 km/h
336 23-06-2004 19:09:01 19.9 C 10.48 g/m*3 19.9 C 0 km/h
337 23-06-2004 19:21:01 19.5 C 10.74 g/m*3 19.5 C 0 km/h
338 23-06-2004 19:33:01 20.6 C 10.92 g/m*3 20.6 C 0 km/h
339 23-06-2004 19:45:01 20.8 C 10.5 g/m*3 20.8 C 0 km/h
340 23-06-2004 19:57:01 20.4 C 10.08 g/m*3 20.4 C 0 km/h
341 23-06-2004 20:09:01 20.9 C 10.56 g/m*3 20.9 C 0 km/h
342 23-06-2004 20:21:01 21 C 9.89 g/m*3 21 C 0 km/h
343 23-06-2004 20:33:01 21.1 C 9.58 g/m*3 21.1 C 0 km/h
344 23-06-2004 20:45:01 20.8 C 9.23 g/m*3 20.8 C 0 km/h
345 23-06-2004 20:57:02 20.3 C 9.5 g/m*3 20.3 C 0 km/h
346 23-06-2004 21:09:01 19.9 C 9.45 g/m*3 19.9 C 0 km/h
347 23-06-2004 21:21:01 19.7 C 9.34 g/m*3 19.7 C 0 km/h
348 23-06-2004 21:33:01 19.3 C 9.12 g/m*3 19.3 C 0 km/h
349 23-06-2004 21:45:01 19.1 C 8.85 g/m*3 19.1 C 0 km/h
350 23-06-2004 21:57:02 19.1 C 8.36 g/m*3 19.1 C 0 km/h
Sensor: Nr:Datum:Temp:Abs-Feuchte:Windchill:Wind:
Aussen-T/F 351 23-06-2004 22:09:01 19.1 C 8.03 g/m*3 19.1 C 0 km/h
352 23-06-2004 22:21:01 19.1 C 7.87 g/m*3 19.1 C 0 km/h
353 23-06-2004 22:33:01 19.1 C 7.7 g/m*3 19.1 C 0 km/h
354 23-06-2004 22:45:01 18.8 C 7.57 g/m*3 18.8 C 0 km/h
355 23-06-2004 22:57:01 18.7 C 7.2 g/m*3 18.7 C 0 km/h
356 23-06-2004 23:09:01 18.6 C 7.16 g/m*3 18.6 C 0 km/h
357 23-06-2004 23:21:01 18.7 C 6.88 g/m*3 18.7 C 0 km/h
358 23-06-2004 23:33:01 18.7 C 6.72 g/m*3 18.7 C 0 km/h
359 23-06-2004 23:45:01 18.7 C 6.72 g/m*3 18.7 C 0 km/h
360 23-06-2004 23:57:01 18.4 C 6.76 g/m*3 18.4 C 0 km/h
361 24-06-2004 00:09:01 18.4 C 6.76 g/m*3 18.4 C 0 km/h
362 24-06-2004 00:21:02 17.9 C 7.02 g/m*3 17.9 C 0 km/h
363 24-06-2004 00:33:02 17.2 C 7.32 g/m*3 17.2 C 0 km/h
364 24-06-2004 00:45:01 16.9 C 7.48 g/m*3 16.9 C 0 km/h
365 24-06-2004 00:57:01 16.8 C 7.43 g/m*3 16.8 C 0 km/h
366 24-06-2004 01:09:01 16.8 C 7.43 g/m*3 16.8 C 0 km/h
367 24-06-2004 01:21:01 17 C 7.23 g/m*3 17 C 0 km/h
368 24-06-2004 01:33:01 16.5 C 7.3 g/m*3 16.5 C 0 km/h
369 24-06-2004 01:45:01 16.4 C 7.54 g/m*3 16.4 C 0 km/h
370 24-06-2004 01:57:01 16.3 C 7.49 g/m*3 16.3 C 0 km/h
371 24-06-2004 02:09:01 16.2 C 7.31 g/m*3 16.2 C 0 km/h
372 24-06-2004 02:21:01 16.2 C 6.76 g/m*3 16.2 C 0 km/h
373 24-06-2004 02:33:01 16 C 6.68 g/m*3 16 C 0 km/h
374 24-06-2004 02:46:02 15.7 C 6.82 g/m*3 15.7 C 0 km/h
375 24-06-2004 02:58:02 15.7 C 6.69 g/m*3 15.7 C 0 km/h
Sensor: Nr:Datum:Temp:Abs-Feuchte:Windchill:Wind:
Aussen-T/F 376 24-06-2004 03:10:02 15.4 C 6.44 g/m*3 15.4 C 0 km/h
377 24-06-2004 03:22:02 15.2 C 6.36 g/m*3 15.2 C 0 km/h
378 24-06-2004 03:34:01 15 C 6.28 g/m*3 15 C 0 km/h
379 24-06-2004 03:46:01 15 C 6.28 g/m*3 15 C 0 km/h
380 24-06-2004 03:58:01 15 C 6.28 g/m*3 15 C 0 km/h
381 24-06-2004 04:10:01 14.9 C 6.37 g/m*3 14.9 C 0 km/h
382 24-06-2004 04:22:01 14.7 C 6.42 g/m*3 14.7 C 0 km/h
383 24-06-2004 04:34:01 14.8 C 6.46 g/m*3 14.8 C 0 km/h
384 24-06-2004 04:46:01 14.5 C 6.47 g/m*3 14.5 C 0 km/h
385 24-06-2004 04:58:01 14.6 C 6.38 g/m*3 14.6 C 0 km/h
386 24-06-2004 05:10:01 14.4 C 6.43 g/m*3 14.4 C 0 km/h
387 24-06-2004 05:22:01 14.2 C 6.47 g/m*3 14.2 C 0 km/h
388 24-06-2004 05:34:01 14.3 C 6.51 g/m*3 14.3 C 0 km/h
389 24-06-2004 05:46:02 14.3 C 6.63 g/m*3 14.3 C 0 km/h
390 24-06-2004 05:58:02 14.2 C 6.72 g/m*3 14.2 C 0 km/h
391 24-06-2004 06:10:01 14.3 C 6.63 g/m*3 14.3 C 0 km/h
392 24-06-2004 06:22:00 14.3 C 6.76 g/m*3 14.3 C 0 km/h
393 24-06-2004 06:34:00 14.3 C 6.76 g/m*3 14.3 C 0 km/h
394 24-06-2004 06:46:02 14.4 C 6.8 g/m*3 14.4 C 0 km/h
395 24-06-2004 06:58:02 14.4 C 6.8 g/m*3 14.4 C 0 km/h
396 24-06-2004 07:10:02 14.4 C 6.8 g/m*3 14.4 C 0 km/h
397 24-06-2004 07:22:02 14.4 C 6.8 g/m*3 14.4 C 0 km/h
398 24-06-2004 07:34:02 14.4 C 6.92 g/m*3 14.4 C 0 km/h
399 24-06-2004 07:46:01 14.5 C 6.96 g/m*3 14.5 C 0 km/h
400 24-06-2004 07:58:01 14.7 C 6.92 g/m*3 14.7 C 0 km/h
Sensor: Nr:Datum:Temp:Abs-Feuchte:Windchill:Wind:
Aussen-T/F 401 24-06-2004 08:10:01 15.2 C 6.88 g/m*3 15.2 C 0 km/h
402 24-06-2004 08:22:01 15.3 C 6.92 g/m*3 15.3 C 0 km/h
403 24-06-2004 08:34:01 15 C 6.92 g/m*3 15 C 0 km/h
404 24-06-2004 08:46:01 15.1 C 6.97 g/m*3 15.1 C 0 km/h
405 24-06-2004 08:58:01 15.2 C 7.14 g/m*3 15.2 C 0 km/h
406 24-06-2004 09:10:01 15 C 7.05 g/m*3 15 C 0 km/h
407 24-06-2004 09:22:01 15.4 C 7.09 g/m*3 15.4 C 0 km/h
408 24-06-2004 09:34:01 15.7 C 7.36 g/m*3 15.7 C 0 km/h
409 24-06-2004 09:46:01 15.9 C 7.18 g/m*3 15.9 C 0 km/h
410 24-06-2004 09:58:01 15.6 C 6.92 g/m*3 15.6 C 0 km/h
411 24-06-2004 10:10:01 16 C 7.22 g/m*3 16 C 0 km/h
412 24-06-2004 10:22:01 16 C 6.81 g/m*3 16 C 0 km/h
413 24-06-2004 10:34:01 16 C 6.81 g/m*3 16 C 0 km/h
414 24-06-2004 10:46:01 16.3 C 6.8 g/m*3 16.3 C 0 km/h
415 24-06-2004 10:58:01 16.4 C 6.98 g/m*3 16.4 C 0 km/h
416 24-06-2004 11:10:01 16.2 C 6.9 g/m*3 16.2 C 0 km/h
417 24-06-2004 11:22:01 16.6 C 7.06 g/m*3 16.6 C 0 km/h
418 24-06-2004 11:34:01 16.5 C 7.02 g/m*3 16.5 C 0 km/h
419 24-06-2004 11:46:01 16.7 C 6.96 g/m*3 16.7 C 0 km/h
420 24-06-2004 11:58:01 17.4 C 6.97 g/m*3 17.4 C 0 km/h
421 24-06-2004 12:10:00 16.8 C 6.72 g/m*3 16.8 C 0 km/h
422 24-06-2004 12:22:00 17 C 6.95 g/m*3 17 C 0 km/h
423 24-06-2004 12:34:00 17.2 C 6.74 g/m*3 17.2 C 0 km/h
424 24-06-2004 12:46:01 18.1 C 6.64 g/m*3 18.1 C 0 km/h
425 24-06-2004 12:58:01 17.9 C 6.57 g/m*3 17.9 C 0 km/h
Sensor: Nr:Datum:Temp:Abs-Feuchte:Windchill:Wind:
Aussen-T/F 426 24-06-2004 13:10:01 17.6 C 6.9 g/m*3 17.6 C 0 km/h
427 24-06-2004 13:22:01 17.9 C 6.87 g/m*3 17.9 C 0 km/h
428 24-06-2004 13:34:01 17.6 C 6.75 g/m*3 17.6 C 0 km/h
429 24-06-2004 13:46:01 18 C 6.76 g/m*3 18 C 0 km/h
430 24-06-2004 13:58:01 17.6 C 6.75 g/m*3 17.6 C 0 km/h
431 24-06-2004 14:10:00 17.4 C 7.11 g/m*3 17.4 C 0 km/h
432 24-06-2004 14:22:00 18 C 6.3 g/m*3 18 C 0 km/h
433 24-06-2004 14:34:00 18.2 C 6.22 g/m*3 18.2 C 0 km/h
434 24-06-2004 14:46:01 18.5 C 6.17 g/m*3 18.5 C 0 km/h
435 24-06-2004 14:58:01 19.2 C 6.6 g/m*3 19.2 C 0 km/h
436 24-06-2004 15:10:01 19.1 C 6.07 g/m*3 19.1 C 0 km/h
437 24-06-2004 15:22:01 19.1 C 6.23 g/m*3 19.1 C 0 km/h
438 24-06-2004 15:34:01 19.1 C 6.39 g/m*3 19.1 C 0 km/h
439 24-06-2004 15:46:01 18.6 C 6.05 g/m*3 18.6 C 0 km/h
440 24-06-2004 15:58:01 18.9 C 6.64 g/m*3 18.9 C 0 km/h
441 24-06-2004 16:10:00 19.8 C 6.66 g/m*3 19.8 C 0 km/h
442 24-06-2004 16:22:01 19.2 C 6.6 g/m*3 19.2 C 0 km/h
443 24-06-2004 16:34:01 18.7 C 6.56 g/m*3 18.7 C 0 km/h
444 24-06-2004 16:46:01 17.7 C 6.94 g/m*3 17.7 C 0 km/h
445 24-06-2004 16:58:01 18.8 C 7.25 g/m*3 18.8 C 0 km/h
446 24-06-2004 17:10:01 20 C 7.43 g/m*3 20 C 0 km/h
447 24-06-2004 17:22:01 19.6 C 7.09 g/m*3 19.6 C 0 km/h
448 24-06-2004 17:34:01 20.2 C 7.17 g/m*3 20.2 C 0 km/h
449 24-06-2004 17:46:01 18.5 C 7.12 g/m*3 18.5 C 0 km/h
450 24-06-2004 17:58:01 17.9 C 7.94 g/m*3 17.9 C 0 km/h
Sensor: Nr:Datum:Temp:Abs-Feuchte:Windchill:Wind:
Aussen-T/F 451 24-06-2004 18:10:01 19 C 7.5 g/m*3 19 C 0 km/h
452 24-06-2004 18:22:01 19.1 C 7.05 g/m*3 19.1 C 0 km/h
453 24-06-2004 18:34:01 18.5 C 6.96 g/m*3 18.5 C 0 km/h
454 24-06-2004 18:46:01 19.5 C 7.55 g/m*3 19.5 C 0 km/h
455 24-06-2004 18:58:01 17.7 C 7.09 g/m*3 17.7 C 0 km/h
456 24-06-2004 19:10:01 17.3 C 7.07 g/m*3 17.3 C 0 km/h
457 24-06-2004 19:22:01 17.2 C 7.18 g/m*3 17.2 C 0 km/h
458 24-06-2004 19:34:01 18.2 C 7.46 g/m*3 18.2 C 0 km/h
459 24-06-2004 19:46:01 18.1 C 7.57 g/m*3 18.1 C 0 km/h
460 24-06-2004 19:58:01 18 C 7.68 g/m*3 18 C 0 km/h
461 24-06-2004 20:10:01 17.7 C 7.85 g/m*3 17.7 C 0 km/h
462 24-06-2004 20:22:01 17.7 C 8 g/m*3 17.7 C 0 km/h
463 24-06-2004 20:34:01 17.4 C 8 g/m*3 17.4 C 0 km/h
464 24-06-2004 20:46:01 16.7 C 7.53 g/m*3 16.7 C 0 km/h
465 24-06-2004 20:58:01 16.2 C 7.31 g/m*3 16.2 C 0 km/h
466 24-06-2004 21:10:01 16.2 C 7.45 g/m*3 16.2 C 0 km/h
467 24-06-2004 21:22:01 15.8 C 7.54 g/m*3 15.8 C 0 km/h
468 24-06-2004 21:34:02 15.4 C 7.49 g/m*3 15.4 C 0 km/h
469 24-06-2004 21:46:01 14.9 C 7.52 g/m*3 14.9 C 0 km/h
470 24-06-2004 21:58:01 14.7 C 7.68 g/m*3 14.7 C 0 km/h
471 24-06-2004 22:10:01 14.7 C 7.93 g/m*3 14.7 C 0 km/h
472 24-06-2004 22:22:01 14.7 C 7.93 g/m*3 14.7 C 0 km/h
473 24-06-2004 22:34:02 14.5 C 8.21 g/m*3 14.5 C 0 km/h
474 24-06-2004 22:46:02 13.7 C 8.76 g/m*3 13.7 C 0 km/h
475 24-06-2004 22:58:02 13.7 C 9.24 g/m*3 13.7 C 0 km/h
Sensor: Nr:Datum:Temp:Abs-Feuchte:Windchill:Wind:
Aussen-T/F 476 24-06-2004 23:10:02 13.7 C 8.88 g/m*3 13.7 C 0 km/h
477 24-06-2004 23:22:02 13.4 C 9.07 g/m*3 13.4 C 0 km/h
478 24-06-2004 23:34:02 12.9 C 9.24 g/m*3 12.9 C 0 km/h
479 24-06-2004 23:46:02 12.1 C 8.79 g/m*3 12.1 C 0 km/h
480 24-06-2004 23:58:02 12.3 C 9.23 g/m*3 12.3 C 0 km/h
481 25-06-2004 00:10:02 12.6 C 9.29 g/m*3 12.6 C 0 km/h
482 25-06-2004 00:22:02 12.8 C 9.41 g/m*3 12.8 C 0 km/h
483 25-06-2004 00:34:02 12.7 C 9.35 g/m*3 12.7 C 0 km/h
484 25-06-2004 00:46:01 12.5 C 9.24 g/m*3 12.5 C 0 km/h
485 25-06-2004 00:58:01 12 C 8.95 g/m*3 12 C 0 km/h
486 25-06-2004 01:10:01 11.8 C 8.95 g/m*3 11.8 C 0 km/h
487 25-06-2004 01:22:01 11.6 C 8.94 g/m*3 11.6 C 0 km/h
488 25-06-2004 01:34:01 11.2 C 8.72 g/m*3 11.2 C 0 km/h
489 25-06-2004 01:46:01 11.1 C 8.76 g/m*3 11.1 C 0 km/h
490 25-06-2004 01:58:01 11 C 8.71 g/m*3 11 C 0 km/h
491 25-06-2004 02:10:01 10.9 C 8.75 g/m*3 10.9 C 0 km/h
492 25-06-2004 02:22:01 10.7 C 8.55 g/m*3 10.7 C 0 km/h
493 25-06-2004 02:34:01 10.5 C 8.53 g/m*3 10.5 C 0 km/h
494 25-06-2004 02:47:02 10.8 C 8.6 g/m*3 10.8 C 0 km/h
495 25-06-2004 02:59:02 10.8 C 8.5 g/m*3 10.8 C 0 km/h
496 25-06-2004 03:11:03 10.6 C 8.3 g/m*3 10.6 C 0 km/h
497 25-06-2004 03:23:03 10.5 C 8.24 g/m*3 10.5 C 0 km/h
498 25-06-2004 03:35:01 10.5 C 8.15 g/m*3 10.5 C 0 km/h
499 25-06-2004 03:47:01 10.3 C 8.14 g/m*3 10.3 C 0 km/h
500 25-06-2004 03:59:01 10.3 C 8.24 g/m*3 10.3 C 0 km/h
Sensor: Nr:Datum:Temp:Abs-Feuchte:Windchill:Wind:
Aussen-T/F 501 25-06-2004 04:11:01 10.9 C 8.06 g/m*3 10.9 C 0 km/h
502 25-06-2004 04:23:01 10.8 C 7.91 g/m*3 10.8 C 0 km/h
503 25-06-2004 04:35:01 11 C 7.81 g/m*3 11 C 0 km/h
504 25-06-2004 04:47:01 11 C 7.61 g/m*3 11 C 0 km/h
505 25-06-2004 04:59:01 10.9 C 7.46 g/m*3 10.9 C 0 km/h
506 25-06-2004 05:11:00 10.7 C 7.66 g/m*3 10.7 C 0 km/h
507 25-06-2004 05:23:00 10.5 C 7.57 g/m*3 10.5 C 0 km/h
508 25-06-2004 05:35:00 10.4 C 7.52 g/m*3 10.4 C 0 km/h
509 25-06-2004 05:47:01 10.4 C 7.42 g/m*3 10.4 C 0 km/h
510 25-06-2004 05:59:01 10.1 C 7.47 g/m*3 10.1 C 0 km/h
511 25-06-2004 06:11:01 10 C 7.52 g/m*3 10 C 0 km/h
512 25-06-2004 06:23:01 10 C 7.61 g/m*3 10 C 0 km/h
513 25-06-2004 06:35:01 10.7 C 7.46 g/m*3 10.7 C 0 km/h
514 25-06-2004 06:47:01 11.2 C 7.3 g/m*3 11.2 C 0 km/h
515 25-06-2004 06:59:01 11.4 C 7.39 g/m*3 11.4 C 0 km/h
516 25-06-2004 07:11:00 11.4 C 7.39 g/m*3 11.4 C 0 km/h
517 25-06-2004 07:23:00 11.4 C 7.49 g/m*3 11.4 C 0 km/h
518 25-06-2004 07:35:00 11.5 C 7.44 g/m*3 11.5 C 0 km/h
519 25-06-2004 07:47:01 11.7 C 7.53 g/m*3 11.7 C 0 km/h
520 25-06-2004 07:59:01 12 C 7.46 g/m*3 12 C 0 km/h
521 25-06-2004 08:11:01 12.2 C 7.34 g/m*3 12.2 C 0 km/h
522 25-06-2004 08:23:01 12.4 C 7.32 g/m*3 12.4 C 0 km/h
523 25-06-2004 08:35:00 12.9 C 7.33 g/m*3 12.9 C 0 km/h
524 25-06-2004 08:47:01 13.3 C 7.51 g/m*3 13.3 C 0 km/h
525 25-06-2004 08:59:01 13.2 C 7.46 g/m*3 13.2 C 0 km/h
Sensor: Nr:Datum:Temp:Abs-Feuchte:Windchill:Wind:
Aussen-T/F 526 25-06-2004 09:11:01 13.4 C 7.67 g/m*3 13.4 C 0 km/h
527 25-06-2004 09:23:01 13.9 C 7.55 g/m*3 13.9 C 0 km/h
528 25-06-2004 09:35:00 14.3 C 7.62 g/m*3 14.3 C 0 km/h
529 25-06-2004 09:47:01 14.6 C 7.63 g/m*3 14.6 C 0 km/h
530 25-06-2004 09:59:01 14.4 C 7.42 g/m*3 14.4 C 0 km/h
531 25-06-2004 10:11:01 15.1 C 7.74 g/m*3 15.1 C 0 km/h
532 25-06-2004 10:23:01 15.5 C 7.53 g/m*3 15.5 C 0 km/h
533 25-06-2004 10:35:00 16 C 7.63 g/m*3 16 C 0 km/h
534 25-06-2004 10:47:01 16.1 C 7.4 g/m*3 16.1 C 0 km/h
535 25-06-2004 10:59:01 16.7 C 7.25 g/m*3 16.7 C 0 km/h
536 25-06-2004 11:11:01 16.7 C 7.11 g/m*3 16.7 C 0 km/h
537 25-06-2004 11:23:01 17.5 C 7.16 g/m*3 17.5 C 0 km/h
538 25-06-2004 11:35:00 17.2 C 7.03 g/m*3 17.2 C 0 km/h
539 25-06-2004 11:47:01 17.1 C 7.13 g/m*3 17.1 C 0 km/h
540 25-06-2004 11:59:01 16.9 C 6.76 g/m*3 16.9 C 0 km/h
541 25-06-2004 12:11:01 17.7 C 6.94 g/m*3 17.7 C 0 km/h
542 25-06-2004 12:23:01 17.2 C 6.74 g/m*3 17.2 C 0 km/h
543 25-06-2004 12:35:01 17.7 C 6.19 g/m*3 17.7 C 0 km/h
544 25-06-2004 12:47:01 17 C 6.22 g/m*3 17 C 0 km/h
545 25-06-2004 12:59:01 17.5 C 6.11 g/m*3 17.5 C 0 km/h
546 25-06-2004 13:11:01 18.6 C 6.37 g/m*3 18.6 C 0 km/h
547 25-06-2004 13:23:01 18.4 C 6.29 g/m*3 18.4 C 0 km/h
548 25-06-2004 13:35:01 18.5 C 6.49 g/m*3 18.5 C 0 km/h
549 25-06-2004 13:47:01 18 C 6.91 g/m*3 18 C 0 km/h
550 25-06-2004 13:59:01 18.4 C 7.08 g/m*3 18.4 C 0 km/h
Sensor: Nr:Datum:Temp:Abs-Feuchte:Windchill:Wind:
Aussen-T/F 551 25-06-2004 14:11:01 19.3 C 6.8 g/m*3 19.3 C 0 km/h
552 25-06-2004 14:23:01 19.3 C 6.8 g/m*3 19.3 C 0 km/h
553 25-06-2004 14:35:01 18.5 C 6.65 g/m*3 18.5 C 0 km/h
554 25-06-2004 14:47:01 18.3 C 7.19 g/m*3 18.3 C 0 km/h
555 25-06-2004 14:59:01 18 C 7.22 g/m*3 18 C 0 km/h
556 25-06-2004 15:11:01 18.4 C 7.08 g/m*3 18.4 C 0 km/h
557 25-06-2004 15:23:01 18.2 C 7.15 g/m*3 18.2 C 0 km/h
558 25-06-2004 15:35:01 20.3 C 7.39 g/m*3 20.3 C 0 km/h
559 25-06-2004 15:47:01 19.6 C 7.6 g/m*3 19.6 C 0 km/h
560 25-06-2004 15:59:01 18.5 C 7.44 g/m*3 18.5 C 0 km/h
561 25-06-2004 16:11:01 17.9 C 6.26 g/m*3 17.9 C 0 km/h
562 25-06-2004 16:23:01 17.7 C 6.64 g/m*3 17.7 C 0 km/h
563 25-06-2004 16:35:01 17.6 C 6.75 g/m*3 17.6 C 0 km/h
564 25-06-2004 16:47:01 17.8 C 6.83 g/m*3 17.8 C 0 km/h
565 25-06-2004 16:59:01 18 C 6.91 g/m*3 18 C 0 km/h
566 25-06-2004 17:11:01 18.5 C 6.8 g/m*3 18.5 C 0 km/h
567 25-06-2004 17:23:01 18.6 C 7 g/m*3 18.6 C 0 km/h
568 25-06-2004 17:35:01 18.5 C 7.12 g/m*3 18.5 C 0 km/h
569 25-06-2004 17:47:01 17.6 C 6.9 g/m*3 17.6 C 0 km/h
570 25-06-2004 17:59:01 17.2 C 7.18 g/m*3 17.2 C 0 km/h
571 25-06-2004 18:11:01 17.2 C 7.47 g/m*3 17.2 C 0 km/h
572 25-06-2004 18:23:01 17.1 C 7.57 g/m*3 17.1 C 0 km/h
573 25-06-2004 18:35:01 16.9 C 6.76 g/m*3 16.9 C 0 km/h
574 25-06-2004 18:47:01 17.3 C 7.07 g/m*3 17.3 C 0 km/h
575 25-06-2004 18:59:01 17.5 C 7.45 g/m*3 17.5 C 0 km/h
Sensor: Nr:Datum:Temp:Abs-Feuchte:Windchill:Wind:
Aussen-T/F 576 25-06-2004 19:11:01 17.5 C 7.31 g/m*3 17.5 C 0 km/h
577 25-06-2004 19:23:01 17.1 C 7.42 g/m*3 17.1 C 0 km/h
578 25-06-2004 19:35:01 17.4 C 7.11 g/m*3 17.4 C 0 km/h
579 25-06-2004 19:47:01 17.3 C 7.07 g/m*3 17.3 C 0 km/h
580 25-06-2004 19:59:01 17.4 C 7.41 g/m*3 17.4 C 0 km/h
581 25-06-2004 20:11:01 17.6 C 7.8 g/m*3 17.6 C 0 km/h
582 25-06-2004 20:23:01 18.2 C 7.46 g/m*3 18.2 C 0 km/h
583 25-06-2004 20:35:01 17.9 C 7.33 g/m*3 17.9 C 0 km/h
584 25-06-2004 20:47:02 17.3 C 7.81 g/m*3 17.3 C 0 km/h
585 25-06-2004 20:59:02 16.7 C 7.96 g/m*3 16.7 C 0 km/h
586 25-06-2004 21:11:01 16.2 C 8 g/m*3 16.2 C 0 km/h
587 25-06-2004 21:23:02 15.4 C 7.75 g/m*3 15.4 C 0 km/h
588 25-06-2004 21:35:02 14.8 C 7.73 g/m*3 14.8 C 0 km/h
589 25-06-2004 21:47:02 14.3 C 7.62 g/m*3 14.3 C 0 km/h
590 25-06-2004 21:59:02 14 C 7.6 g/m*3 14 C 0 km/h
591 25-06-2004 22:11:02 13.6 C 7.77 g/m*3 13.6 C 0 km/h
592 25-06-2004 22:23:02 13.4 C 7.79 g/m*3 13.4 C 0 km/h
593 25-06-2004 22:35:02 13.1 C 7.76 g/m*3 13.1 C 0 km/h
594 25-06-2004 22:47:02 13.1 C 7.99 g/m*3 13.1 C 0 km/h
595 25-06-2004 22:59:02 12.8 C 7.95 g/m*3 12.8 C 0 km/h
596 25-06-2004 23:11:02 12.7 C 8.13 g/m*3 12.7 C 0 km/h
597 25-06-2004 23:23:02 12.3 C 8.04 g/m*3 12.3 C 0 km/h
598 25-06-2004 23:35:02 12 C 8.1 g/m*3 12 C 0 km/h
599 25-06-2004 23:47:01 11.8 C 8.21 g/m*3 11.8 C 0 km/h
600 25-06-2004 23:59:01 11.7 C 8.16 g/m*3 11.7 C 0 km/h
Sensor: Nr:Datum:Temp:Abs-Feuchte:Windchill:Wind:
Aussen-T/F 601 26-06-2004 00:11:01 11.7 C 8.16 g/m*3 11.7 C 0 km/h
602 26-06-2004 00:23:00 11.5 C 8.16 g/m*3 11.5 C 0 km/h
603 26-06-2004 00:35:00 11.3 C 8.06 g/m*3 11.3 C 0 km/h
604 26-06-2004 00:47:01 11 C 8.01 g/m*3 11 C 0 km/h
605 26-06-2004 00:59:01 11 C 8.11 g/m*3 11 C 0 km/h
606 26-06-2004 01:11:01 10.8 C 8.11 g/m*3 10.8 C 0 km/h
607 26-06-2004 01:23:01 10.7 C 8.05 g/m*3 10.7 C 0 km/h
608 26-06-2004 01:35:01 10.5 C 8.05 g/m*3 10.5 C 0 km/h
609 26-06-2004 01:47:01 10.2 C 7.9 g/m*3 10.2 C 0 km/h
610 26-06-2004 01:59:01 10.2 C 7.99 g/m*3 10.2 C 0 km/h
611 26-06-2004 02:11:01 10 C 8.08 g/m*3 10 C 0 km/h
612 26-06-2004 02:23:01 9.8 C 8.16 g/m*3 9.8 C 0 km/h
613 26-06-2004 02:35:01 9.6 C 7.97 g/m*3 9.6 C 0 km/h
614 26-06-2004 02:48:03 9.5 C 8.01 g/m*3 9.5 C 0 km/h
615 26-06-2004 03:00:03 9.4 C 7.87 g/m*3 9.4 C 0 km/h
616 26-06-2004 03:12:03 9.3 C 7.91 g/m*3 9.3 C 0 km/h
617 26-06-2004 03:24:03 9.3 C 7.91 g/m*3 9.3 C 0 km/h
618 26-06-2004 03:36:02 9.2 C 7.86 g/m*3 9.2 C 0 km/h
619 26-06-2004 03:48:02 9 C 7.76 g/m*3 9 C 0 km/h
620 26-06-2004 04:00:02 8.9 C 7.8 g/m*3 8.9 C 0 km/h
621 26-06-2004 04:12:02 8.8 C 7.75 g/m*3 8.8 C 0 km/h
622 26-06-2004 04:24:02 8.6 C 7.73 g/m*3 8.6 C 0 km/h
623 26-06-2004 04:36:02 8.6 C 7.73 g/m*3 8.6 C 0 km/h
624 26-06-2004 04:48:01 8.5 C 7.68 g/m*3 8.5 C 0 km/h
625 26-06-2004 05:00:01 8.4 C 7.55 g/m*3 8.4 C 0 km/h
Sensor: Nr:Datum:Temp:Abs-Feuchte:Windchill:Wind:
Aussen-T/F 626 26-06-2004 05:12:01 8.4 C 7.55 g/m*3 8.4 C 0 km/h
627 26-06-2004 05:24:01 8.1 C 7.41 g/m*3 8.1 C 0 km/h
628 26-06-2004 05:36:01 8 C 7.44 g/m*3 8 C 0 km/h
629 26-06-2004 05:48:01 7.9 C 7.47 g/m*3 7.9 C 0 km/h
630 26-06-2004 06:00:01 7.9 C 7.47 g/m*3 7.9 C 0 km/h
631 26-06-2004 06:12:00 8 C 7.36 g/m*3 8 C 0 km/h
632 26-06-2004 06:24:00 7.9 C 7.47 g/m*3 7.9 C 0 km/h
633 26-06-2004 06:36:00 8 C 7.52 g/m*3 8 C 0 km/h
634 26-06-2004 06:48:01 8.5 C 7.85 g/m*3 8.5 C 0 km/h
635 26-06-2004 07:00:01 8.3 C 7.67 g/m*3 8.3 C 0 km/h
636 26-06-2004 07:12:01 8.2 C 7.62 g/m*3 8.2 C 0 km/h
637 26-06-2004 07:24:01 8.2 C 7.54 g/m*3 8.2 C 0 km/h
638 26-06-2004 07:36:00 8.6 C 7.82 g/m*3 8.6 C 0 km/h
639 26-06-2004 07:48:01 8.8 C 7.83 g/m*3 8.8 C 0 km/h
640 26-06-2004 08:00:01 9 C 7.76 g/m*3 9 C 0 km/h
641 26-06-2004 08:12:01 9.3 C 7.91 g/m*3 9.3 C 0 km/h
642 26-06-2004 08:24:01 9.4 C 7.96 g/m*3 9.4 C 0 km/h
643 26-06-2004 08:36:00 9.6 C 8.06 g/m*3 9.6 C 0 km/h
644 26-06-2004 08:48:01 10 C 8.17 g/m*3 10 C 0 km/h
645 26-06-2004 09:00:01 10.9 C 8.45 g/m*3 10.9 C 0 km/h
646 26-06-2004 09:12:01 11.5 C 8.47 g/m*3 11.5 C 0 km/h
647 26-06-2004 09:24:01 12.4 C 8.74 g/m*3 12.4 C 0 km/h
648 26-06-2004 09:36:01 13.1 C 8.79 g/m*3 13.1 C 0 km/h
649 26-06-2004 09:48:01 14 C 9.05 g/m*3 14 C 0 km/h
650 26-06-2004 10:00:01 14.7 C 9.07 g/m*3 14.7 C 0 km/h
Sensor: Nr:Datum:Temp:Abs-Feuchte:Windchill:Wind:
Aussen-T/F 651 26-06-2004 10:12:01 15.5 C 9.25 g/m*3 15.5 C 0 km/h
652 26-06-2004 10:24:01 16.4 C 9.21 g/m*3 16.4 C 0 km/h
653 26-06-2004 10:36:01 17.3 C 9.28 g/m*3 17.3 C 0 km/h
654 26-06-2004 10:48:01 17.5 C 9.24 g/m*3 17.5 C 0 km/h
655 26-06-2004 11:00:01 17.1 C 9.32 g/m*3 17.1 C 0 km/h
656 26-06-2004 11:12:01 17.2 C 9.08 g/m*3 17.2 C 0 km/h
657 26-06-2004 11:24:01 18.9 C 8.75 g/m*3 18.9 C 0 km/h
658 26-06-2004 11:36:01 19.2 C 8.41 g/m*3 19.2 C 0 km/h
659 26-06-2004 11:48:01 18.7 C 9.29 g/m*3 18.7 C 0 km/h
660 26-06-2004 12:00:01 21.4 C 8.44 g/m*3 21.4 C 0 km/h
661 26-06-2004 12:12:01 22.1 C 7.42 g/m*3 22.1 C 0 km/h
662 26-06-2004 12:24:01 20.8 C 8.69 g/m*3 20.8 C 0 km/h
663 26-06-2004 12:36:01 21.3 C 8.57 g/m*3 21.3 C 0 km/h
664 26-06-2004 12:48:01 22.5 C 7.59 g/m*3 22.5 C 0 km/h
665 26-06-2004 13:00:01 21.8 C 7.1 g/m*3 21.8 C 0 km/h
666 26-06-2004 13:12:01 21.9 C 9.07 g/m*3 21.9 C 0 km/h
667 26-06-2004 13:24:01 22.6 C 9.24 g/m*3 22.6 C 0 km/h
668 26-06-2004 13:36:01 23.9 C 6.92 g/m*3 23.9 C 0 km/h
669 26-06-2004 13:48:01 24 C 6.09 g/m*3 24 C 0 km/h
670 26-06-2004 14:00:01 23.9 C 6.27 g/m*3 23.9 C 0 km/h
671 26-06-2004 14:12:01 23.8 C 6.24 g/m*3 23.8 C 0 km/h
672 26-06-2004 14:24:01 23.7 C 7.7 g/m*3 23.7 C 0 km/h
673 26-06-2004 14:36:01 24.9 C 7.1 g/m*3 24.9 C 0 km/h
674 26-06-2004 14:48:01 24.3 C 6.64 g/m*3 24.3 C 0 km/h
675 26-06-2004 15:00:01 23.6 C 6.59 g/m*3 23.6 C 0 km/h
Sensor: Nr:Datum:Temp:Abs-Feuchte:Windchill:Wind:
Aussen-T/F 676 26-06-2004 15:12:01 25.4 C 7.77 g/m*3 25.4 C 0 km/h
677 26-06-2004 15:24:01 25.5 C 6.87 g/m*3 25.5 C 0 km/h
678 26-06-2004 15:36:01 25.6 C 6.43 g/m*3 25.6 C 0 km/h
679 26-06-2004 15:48:01 25.3 C 6.55 g/m*3 25.3 C 0 km/h
680 26-06-2004 16:00:01 24.7 C 7.02 g/m*3 24.7 C 0 km/h
681 26-06-2004 16:12:01 24.4 C 6.45 g/m*3 24.4 C 0 km/h
682 26-06-2004 16:24:01 24.3 C 6.42 g/m*3 24.3 C 0 km/h
683 26-06-2004 16:36:01 24 C 6.31 g/m*3 24 C 0 km/h
684 26-06-2004 16:48:01 23.9 C 6.71 g/m*3 23.9 C 0 km/h
685 26-06-2004 17:00:02 24.2 C 7.48 g/m*3 24.2 C 0 km/h
686 26-06-2004 17:12:01 24.6 C 7.43 g/m*3 24.6 C 0 km/h
687 26-06-2004 17:24:01 24 C 6.53 g/m*3 24 C 0 km/h
688 26-06-2004 17:36:01 24.3 C 7.52 g/m*3 24.3 C 0 km/h
689 26-06-2004 17:48:01 24.5 C 8.06 g/m*3 24.5 C 0 km/h
690 26-06-2004 18:00:02 23.9 C 8.65 g/m*3 23.9 C 0 km/h
691 26-06-2004 18:12:01 23.7 C 8.77 g/m*3 23.7 C 0 km/h
692 26-06-2004 18:24:01 23.3 C 8.78 g/m*3 23.3 C 0 km/h
693 26-06-2004 18:36:02 22.9 C 8.99 g/m*3 22.9 C 0 km/h
694 26-06-2004 18:48:02 22.6 C 9.24 g/m*3 22.6 C 0 km/h
695 26-06-2004 19:00:03 22.2 C 8.83 g/m*3 22.2 C 0 km/h
696 26-06-2004 19:12:02 21.9 C 9.26 g/m*3 21.9 C 0 km/h
697 26-06-2004 19:24:02 21.5 C 8.86 g/m*3 21.5 C 0 km/h
698 26-06-2004 19:36:02 21.2 C 8.9 g/m*3 21.2 C 0 km/h
699 26-06-2004 19:48:01 20.8 C 8.87 g/m*3 20.8 C 0 km/h
700 26-06-2004 20:00:01 20.5 C 8.72 g/m*3 20.5 C 0 km/h
Sensor: Nr:Datum:Temp:Abs-Feuchte:Windchill:Wind:
Aussen-T/F 701 26-06-2004 20:12:01 20.3 C 8.79 g/m*3 20.3 C 0 km/h
702 26-06-2004 20:24:01 20.1 C 8.52 g/m*3 20.1 C 0 km/h
703 26-06-2004 20:36:01 20 C 8.81 g/m*3 20 C 0 km/h
704 26-06-2004 20:48:01 19.8 C 8.88 g/m*3 19.8 C 0 km/h
705 26-06-2004 21:00:01 19.5 C 8.73 g/m*3 19.5 C 0 km/h
706 26-06-2004 21:12:01 19.3 C 8.63 g/m*3 19.3 C 0 km/h
707 26-06-2004 21:24:01 19.2 C 8.74 g/m*3 19.2 C 0 km/h
708 26-06-2004 21:36:01 19 C 8.8 g/m*3 19 C 0 km/h
709 26-06-2004 21:48:01 18.7 C 8.81 g/m*3 18.7 C 0 km/h
710 26-06-2004 22:00:01 18.5 C 8.7 g/m*3 18.5 C 0 km/h
711 26-06-2004 22:12:01 18.4 C 8.65 g/m*3 18.4 C 0 km/h
712 26-06-2004 22:24:01 18.3 C 8.76 g/m*3 18.3 C 0 km/h
713 26-06-2004 22:36:01 18.2 C 9.17 g/m*3 18.2 C 0 km/h
714 26-06-2004 22:48:01 17.4 C 9.78 g/m*3 17.4 C 0 km/h
715 26-06-2004 23:00:01 16.9 C 9.35 g/m*3 16.9 C 0 km/h
716 26-06-2004 23:12:01 17.1 C 8.88 g/m*3 17.1 C 0 km/h
717 26-06-2004 23:24:00 17.4 C 9.04 g/m*3 17.4 C 0 km/h
718 26-06-2004 23:36:00 17.4 C 9.34 g/m*3 17.4 C 0 km/h
719 26-06-2004 23:48:01 17.3 C 8.84 g/m*3 17.3 C 0 km/h
720 27-06-2004 00:00:01 17.2 C 8.49 g/m*3 17.2 C 0 km/h
721 27-06-2004 00:12:01 17.2 C 9.08 g/m*3 17.2 C 0 km/h
722 27-06-2004 00:24:01 17 C 8.97 g/m*3 17 C 0 km/h
723 27-06-2004 00:36:01 17 C 8.97 g/m*3 17 C 0 km/h
724 27-06-2004 00:48:01 17 C 8.97 g/m*3 17 C 0 km/h
725 27-06-2004 01:00:01 16.5 C 9.41 g/m*3 16.5 C 0 km/h
Sensor: Nr:Datum:Temp:Abs-Feuchte:Windchill:Wind:
Aussen-T/F 726 27-06-2004 01:12:01 16.4 C 9.35 g/m*3 16.4 C 0 km/h
727 27-06-2004 01:24:01 16.4 C 9.63 g/m*3 16.4 C 0 km/h
728 27-06-2004 01:36:01 16.5 C 9.55 g/m*3 16.5 C 0 km/h
729 27-06-2004 01:48:01 16.5 C 9.55 g/m*3 16.5 C 0 km/h
730 27-06-2004 02:00:01 16.4 C 9.49 g/m*3 16.4 C 0 km/h
731 27-06-2004 02:12:01 16.4 C 9.63 g/m*3 16.4 C 0 km/h
732 27-06-2004 02:24:01 16.2 C 10.07 g/m*3 16.2 C 0 km/h
733 27-06-2004 02:36:01 15.6 C 10.24 g/m*3 15.6 C 0 km/h
734 27-06-2004 02:49:02 15.6 C 10.24 g/m*3 15.6 C 0 km/h
735 27-06-2004 03:01:02 15.4 C 10.51 g/m*3 15.4 C 0 km/h
736 27-06-2004 03:13:02 14.7 C 10.7 g/m*3 14.7 C 0 km/h
737 27-06-2004 03:25:02 14.7 C 10.95 g/m*3 14.7 C 0 km/h
738 27-06-2004 03:37:02 14.9 C 11.22 g/m*3 14.9 C 0 km/h
739 27-06-2004 03:49:02 15.1 C 11.35 g/m*3 15.1 C 0 km/h
740 27-06-2004 04:01:02 15.1 C 11.22 g/m*3 15.1 C 0 km/h
741 27-06-2004 04:13:02 15.2 C 11.29 g/m*3 15.2 C 0 km/h
742 27-06-2004 04:25:02 15.1 C 11.09 g/m*3 15.1 C 0 km/h
743 27-06-2004 04:37:02 15 C 10.9 g/m*3 15 C 0 km/h
744 27-06-2004 04:49:02 15 C 10.9 g/m*3 15 C 0 km/h
745 27-06-2004 05:01:01 15 C 10.9 g/m*3 15 C 0 km/h
746 27-06-2004 05:13:01 15 C 11.03 g/m*3 15 C 0 km/h
747 27-06-2004 05:25:01 15 C 11.03 g/m*3 15 C 0 km/h
748 27-06-2004 05:37:01 14.9 C 11.09 g/m*3 14.9 C 0 km/h
749 27-06-2004 05:49:01 15 C 11.16 g/m*3 15 C 0 km/h
750 27-06-2004 06:01:01 15.1 C 11.09 g/m*3 15.1 C 0 km/h
Sensor: Nr:Datum:Temp:Abs-Feuchte:Windchill:Wind:
Aussen-T/F 751 27-06-2004 06:13:01 15.2 C 11.16 g/m*3 15.2 C 0 km/h
752 27-06-2004 06:25:01 15.4 C 11.3 g/m*3 15.4 C 0 km/h
753 27-06-2004 06:37:01 15.7 C 11.37 g/m*3 15.7 C 0 km/h
754 27-06-2004 06:49:01 15.7 C 11.24 g/m*3 15.7 C 0 km/h
755 27-06-2004 07:01:01 15.8 C 11.31 g/m*3 15.8 C 0 km/h
756 27-06-2004 07:13:01 16 C 11.31 g/m*3 16 C 0 km/h
757 27-06-2004 07:25:01 16.3 C 11.52 g/m*3 16.3 C 0 km/h
758 27-06-2004 07:37:01 16.7 C 11.51 g/m*3 16.7 C 0 km/h
759 27-06-2004 07:49:01 16.8 C 11.29 g/m*3 16.8 C 0 km/h
760 27-06-2004 08:01:01 17 C 11.29 g/m*3 17 C 0 km/h
761 27-06-2004 08:13:01 17.2 C 11.42 g/m*3 17.2 C 0 km/h
762 27-06-2004 08:25:01 17.1 C 11.21 g/m*3 17.1 C 0 km/h
763 27-06-2004 08:37:01 17.1 C 11.5 g/m*3 17.1 C 0 km/h
764 27-06-2004 08:49:01 17.3 C 11.79 g/m*3 17.3 C 0 km/h
765 27-06-2004 09:01:02 17.3 C 11.64 g/m*3 17.3 C 0 km/h
766 27-06-2004 09:13:03 17.1 C 11.35 g/m*3 17.1 C 0 km/h
767 27-06-2004 09:25:00 16.6 C 11.44 g/m*3 16.6 C 0 km/h
768 27-06-2004 09:37:51 16.1 C 11.51 g/m*3 16.1 C 0 km/h
769 27-06-2004 10:20:44 15.4 C 11.69 g/m*3 15.4 C 0 km/h
770 27-06-2004 10:32:01 16 C 11.99 g/m*3 16 C 0 km/h
771 27-06-2004 10:44:01 16.9 C 12.66 g/m*3 16.9 C 0 km/h
772 27-06-2004 10:56:00 17.4 C 12.45 g/m*3 17.4 C 0 km/h
773 27-06-2004 11:08:02 17.7 C 12.98 g/m*3 17.7 C 0 km/h
774 27-06-2004 11:20:02 19.2 C 13.52 g/m*3 19.2 C 0 km/h
775 27-06-2004 11:32:02 20.5 C 13.35 g/m*3 20.5 C 0 km/h
Sensor: Nr:Datum:Temp:Abs-Feuchte:Windchill:Wind:
Aussen-T/F 776 27-06-2004 11:44:02 21.2 C 13.16 g/m*3 21.2 C 0 km/h
777 27-06-2004 11:56:01 21.6 C 12.9 g/m*3 21.6 C 0 km/h
778 27-06-2004 12:08:01 21.4 C 12.37 g/m*3 21.4 C 0 km/h
779 27-06-2004 12:20:01 20.8 C 13.04 g/m*3 20.8 C 0 km/h
780 27-06-2004 12:32:01 21.5 C 13.01 g/m*3 21.5 C 0 km/h
781 27-06-2004 12:44:01 22.4 C 12.11 g/m*3 22.4 C 0 km/h
782 27-06-2004 12:56:01 22.7 C 11.72 g/m*3 22.7 C 0 km/h
783 27-06-2004 13:08:01 23.2 C 11.02 g/m*3 23.2 C 0 km/h
784 27-06-2004 13:20:01 25.1 C 11.81 g/m*3 25.1 C 0 km/h
785 27-06-2004 13:32:01 25.3 C 10.77 g/m*3 25.3 C 0 km/h
786 27-06-2004 13:44:01 24.9 C 10.3 g/m*3 24.9 C 0 km/h
787 27-06-2004 13:56:01 24.7 C 10.41 g/m*3 24.7 C 0 km/h
788 27-06-2004 14:08:01 25.3 C 11.24 g/m*3 25.3 C 0 km/h
789 27-06-2004 14:20:01 25.4 C 11.06 g/m*3 25.4 C 0 km/h
790 27-06-2004 14:32:01 26 C 11.2 g/m*3 26 C 0 km/h
791 27-06-2004 14:44:01 26.1 C 10.53 g/m*3 26.1 C 0 km/h
792 27-06-2004 14:56:01 26.7 C 10.38 g/m*3 26.7 C 0 km/h
793 27-06-2004 15:08:01 27.2 C 10.67 g/m*3 27.2 C 0 km/h
794 27-06-2004 15:20:01 27.4 C 10.26 g/m*3 27.4 C 0 km/h
795 27-06-2004 15:32:01 27.7 C 11.23 g/m*3 27.7 C 0 km/h
796 27-06-2004 15:44:01 28.3 C 10.78 g/m*3 28.3 C 0 km/h
797 27-06-2004 15:56:01 30.4 C 10.85 g/m*3 30.4 C 0 km/h
798 27-06-2004 16:08:01 31 C 11.2 g/m*3 31 C 0 km/h
799 27-06-2004 16:20:01 31.3 C 10.41 g/m*3 31.3 C 0 km/h
800 27-06-2004 16:32:01 31 C 11.2 g/m*3 31 C 0 km/h
Sensor: Nr:Datum:Temp:Abs-Feuchte:Windchill:Wind:
Aussen-T/F 801 27-06-2004 16:44:01 30.6 C 10.65 g/m*3 30.6 C 0 km/h
802 27-06-2004 16:56:01 30.7 C 10.08 g/m*3 30.7 C 0 km/h
803 27-06-2004 17:08:01 30.1 C 10.37 g/m*3 30.1 C 0 km/h
804 27-06-2004 17:20:01 29.8 C 10.5 g/m*3 29.8 C 0 km/h
805 27-06-2004 17:32:01 29.6 C 10.68 g/m*3 29.6 C 0 km/h
806 27-06-2004 17:44:01 29.7 C 10.44 g/m*3 29.7 C 0 km/h
807 27-06-2004 17:56:02 29.3 C 11.68 g/m*3 29.3 C 0 km/h
808 27-06-2004 18:08:02 28.7 C 10.46 g/m*3 28.7 C 0 km/h
809 27-06-2004 18:20:02 28.4 C 9.45 g/m*3 28.4 C 0 km/h
810 27-06-2004 18:32:01 28.1 C 11.48 g/m*3 28.1 C 0 km/h
811 27-06-2004 18:44:01 27.9 C 11.9 g/m*3 27.9 C 0 km/h
812 27-06-2004 18:56:01 26.9 C 9.73 g/m*3 26.9 C 0 km/h
813 27-06-2004 19:08:01 26.2 C 9.85 g/m*3 26.2 C 0 km/h
814 27-06-2004 19:20:02 25.8 C 10.83 g/m*3 25.8 C 0 km/h
815 27-06-2004 19:32:01 25.4 C 11.06 g/m*3 25.4 C 0 km/h
816 27-06-2004 19:44:01 25 C 11.05 g/m*3 25 C 0 km/h
817 27-06-2004 19:56:01 25 C 11.05 g/m*3 25 C 0 km/h
818 27-06-2004 20:08:01 24.5 C 11.19 g/m*3 24.5 C 0 km/h
819 27-06-2004 20:20:01 24.1 C 11.6 g/m*3 24.1 C 0 km/h
820 27-06-2004 20:32:01 24 C 11.75 g/m*3 24 C 0 km/h
821 27-06-2004 20:44:01 24.1 C 10.94 g/m*3 24.1 C 0 km/h
822 27-06-2004 20:56:01 23.9 C 11.25 g/m*3 23.9 C 0 km/h
823 27-06-2004 21:08:01 23.9 C 11.47 g/m*3 23.9 C 0 km/h
824 27-06-2004 21:20:01 23.7 C 11.55 g/m*3 23.7 C 0 km/h
825 27-06-2004 21:32:01 23.6 C 11.91 g/m*3 23.6 C 0 km/h
Sensor: Nr:Datum:Temp:Abs-Feuchte:Windchill:Wind:
Aussen-T/F 826 27-06-2004 21:44:01 23.1 C 11.37 g/m*3 23.1 C 0 km/h
827 27-06-2004 21:56:02 22.9 C 11.65 g/m*3 22.9 C 0 km/h
828 27-06-2004 22:08:01 22.8 C 11.58 g/m*3 22.8 C 0 km/h
829 27-06-2004 22:20:01 22.3 C 11.65 g/m*3 22.3 C 0 km/h
830 27-06-2004 22:32:01 21.8 C 11.7 g/m*3 21.8 C 0 km/h
831 27-06-2004 22:44:01 21.6 C 11.19 g/m*3 21.6 C 0 km/h
832 27-06-2004 22:56:01 21.3 C 10.62 g/m*3 21.3 C 0 km/h
833 27-06-2004 23:08:01 20.8 C 10.68 g/m*3 20.8 C 0 km/h
834 27-06-2004 23:20:02 20.3 C 10.38 g/m*3 20.3 C 0 km/h
835 27-06-2004 23:32:02 19.9 C 10.48 g/m*3 19.9 C 0 km/h
836 27-06-2004 23:44:02 19.4 C 10.18 g/m*3 19.4 C 0 km/h
837 27-06-2004 23:56:01 18.9 C 10.04 g/m*3 18.9 C 0 km/h

Legende:
   Min
   Max


Maximal/Minimal-Werte vom 21.06.2004 - 27.06.2004

Sensor Min Max Avg
Temp
(Aussen-T/F)
7.9 °C
26-06-2004  05:48:01
31.3 °C
27-06-2004  16:20:01
16.85 °C
Abs-Feuchte
(Aussen-T/F)
6.05 g/m*3
24-06-2004  15:46:01
13.52 g/m*3
27-06-2004  11:20:02
8.85 g/m*3
Windchill
(Aussen-T/F)
7.9 C
26-06-2004  05:48:01
31.3 C
27-06-2004  16:20:01
16.83 C

Die Daten stammen von einer Davis Vantage Pro 2 Wetter-Station und werden unter Linux mit der Software wview2wettercgi und aufbereitet. Alle Angaben erfolgen ohne Gewähr für ihre Vollständigkeit oder Richtigkeit.
Kontakt: Rainer Krienke krienke@uni-koblenz.de . Meine Webseiten an der Uni Koblenz oder privat.
Version: $Revision: 0.78 $